Time;durP1;ratioP1;P1;durP2;ratioP2;P2;SDS_P1;SDS_P2;PMS_P1;PMS_P2;Temp;Humidity;BMP_temperature;BMP_pressure;BME280_temperature;BME280_humidity;BME280_pressure;Samples;Min_cycle;Max_cycle;Signal;HPM_P1;HPM_P2
2024/01/25 00:02:17;;;;;;;15.10;12.00;;;;;;;0.77;100.00;98668.88;108328;1268;72927;-83
2024/01/25 00:04:44;;;;;;;14.30;11.20;;;;;;;0.81;100.00;98669.95;107086;1264;69102;-84
2024/01/25 00:07:11;;;;;;;15.70;11.20;;;;;;;0.84;100.00;98667.75;107900;1267;71198;-83
2024/01/25 00:09:37;;;;;;;14.60;10.60;;;;;;;0.86;100.00;98660.13;107962;1265;59757;-83
2024/01/25 00:12:05;;;;;;;14.80;11.30;;;;;;;0.88;100.00;98669.52;107603;1267;60384;-82
2024/01/25 00:14:32;;;;;;;14.20;11.50;;;;;;;0.89;100.00;98664.41;106117;1265;73979;-81
2024/01/25 00:16:59;;;;;;;14.30;10.00;;;;;;;0.91;100.00;98665.19;107272;1265;68802;-83
2024/01/25 00:19:26;;;;;;;14.20;9.80;;;;;;;0.94;100.00;98660.05;106166;1267;71177;-81
2024/01/25 00:21:53;;;;;;;14.00;10.20;;;;;;;0.97;100.00;98661.76;106675;1265;61031;-84
2024/01/25 00:24:21;;;;;;;14.00;9.60;;;;;;;0.96;100.00;98659.70;107010;1265;60442;-82
2024/01/25 00:26:48;;;;;;;12.30;9.40;;;;;;;0.97;100.00;98649.88;105660;1264;73877;-84
2024/01/25 00:29:15;;;;;;;13.60;9.10;;;;;;;0.99;100.00;98649.17;105315;1265;70124;-82
2024/01/25 00:31:42;;;;;;;11.70;9.10;;;;;;;1.04;100.00;98650.02;105999;1265;71441;-83
2024/01/25 00:34:08;;;;;;;12.90;9.50;;;;;;;1.05;100.00;98650.73;107002;1264;61422;-84
2024/01/25 00:36:36;;;;;;;12.10;9.60;;;;;;;1.07;100.00;98647.45;106509;1265;60465;-80
2024/01/25 00:39:04;;;;;;;12.50;9.70;;;;;;;1.08;100.00;98647.34;106823;1270;72877;-83
2024/01/25 00:41:32;;;;;;;15.70;11.10;;;;;;;1.10;100.00;98637.92;107137;1264;69611;-81
2024/01/25 00:43:59;;;;;;;15.20;9.50;;;;;;;1.14;100.00;98638.15;107613;1265;71341;-83
2024/01/25 00:46:26;;;;;;;10.50;9.10;;;;;;;1.16;100.00;98639.86;107422;1264;60373;-83
2024/01/25 00:48:52;;;;;;;12.00;10.10;;;;;;;1.18;100.00;98638.11;107497;1264;60469;-84
2024/01/25 00:51:23;;;;;;;9.80;8.30;;;;;;;1.20;100.00;98631.14;106046;1269;72593;-83
2024/01/25 00:53:50;;;;;;;14.20;9.50;;;;;;;1.24;100.00;98624.55;106239;1265;72090;-83
2024/01/25 00:56:17;;;;;;;12.40;10.10;;;;;;;1.28;100.00;98623.30;107218;1264;71426;-83
2024/01/25 00:58:44;;;;;;;11.80;9.00;;;;;;;1.30;100.00;98621.32;108048;1265;60487;-83
2024/01/25 01:01:11;;;;;;;13.30;10.00;;;;;;;1.32;100.00;98618.73;108566;1264;59124;-83
2024/01/25 01:03:38;;;;;;;10.60;9.40;;;;;;;1.33;100.00;98613.77;107174;1264;73061;-83
2024/01/25 01:06:06;;;;;;;10.10;8.40;;;;;;;1.34;100.00;98615.23;106332;1265;68783;-83
2024/01/25 01:08:33;;;;;;;11.60;8.10;;;;;;;1.36;100.00;98610.13;106434;1269;70531;-81
2024/01/25 01:11:00;;;;;;;13.60;9.80;;;;;;;1.38;100.00;98611.02;105317;1265;60535;-81
2024/01/25 01:13:27;;;;;;;10.70;8.70;;;;;;;1.44;100.00;98612.14;106609;1269;60496;-81
2024/01/25 01:15:54;;;;;;;10.10;8.50;;;;;;;1.42;100.00;98600.23;105574;1265;73721;-82
2024/01/25 01:18:21;;;;;;;10.30;7.60;;;;;;;1.44;100.00;98595.70;105173;1265;70041;-81
2024/01/25 01:20:47;;;;;;;10.80;8.90;;;;;;;1.47;100.00;98592.98;105305;1267;71399;-82
2024/01/25 01:23:14;;;;;;;8.30;7.00;;;;;;;1.50;100.00;98594.86;105393;1270;60429;-82
2024/01/25 01:25:40;;;;;;;9.50;8.00;;;;;;;1.45;100.00;98593.34;105563;1265;60468;-80
2024/01/25 01:28:07;;;;;;;9.50;8.30;;;;;;;1.46;100.00;98587.33;105579;1270;74192;-80
2024/01/25 01:30:34;;;;;;;10.50;8.40;;;;;;;1.47;100.00;98581.46;105639;1269;72722;-80
2024/01/25 01:33:00;;;;;;;9.20;8.00;;;;;;;1.46;100.00;98576.99;107524;1264;72640;-82
2024/01/25 01:35:28;;;;;;;11.00;8.60;;;;;;;1.47;100.00;98571.58;106383;1267;61426;-82
2024/01/25 01:37:54;;;;;;;9.60;8.00;;;;;;;1.49;100.00;98571.33;107332;1266;60312;-81
2024/01/25 01:40:21;;;;;;;13.10;8.40;;;;;;;1.51;100.00;98572.23;106429;1264;72565;-81
2024/01/25 01:42:48;;;;;;;10.30;8.50;;;;;;;1.52;100.00;98564.65;107289;1264;69087;-82
2024/01/25 01:45:14;;;;;;;11.50;8.50;;;;;;;1.54;100.00;98564.23;105376;1267;72633;-81
2024/01/25 01:47:41;;;;;;;10.50;8.80;;;;;;;1.56;100.00;98570.33;105292;1265;60580;-82
2024/01/25 01:50:09;;;;;;;12.70;8.80;;;;;;;1.52;100.00;98563.55;105099;1265;60496;-80
2024/01/25 01:52:36;;;;;;;11.30;8.50;;;;;;;1.51;100.00;98563.13;105096;1265;73979;-80
2024/01/25 01:55:03;;;;;;;10.40;8.50;;;;;;;1.53;100.00;98560.48;105168;1265;69148;-81
2024/01/25 01:57:30;;;;;;;11.50;8.30;;;;;;;1.55;100.00;98561.02;108004;1264;72702;-80
2024/01/25 01:59:57;;;;;;;10.20;8.00;;;;;;;1.58;100.00;98556.54;107769;1265;60762;-79
2024/01/25 02:02:24;;;;;;;12.00;8.60;;;;;;;1.60;100.00;98552.52;106008;1265;60471;-79
2024/01/25 02:04:51;;;;;;;10.20;8.70;;;;;;;1.61;100.00;98547.36;105480;1270;73615;-79
2024/01/25 02:07:18;;;;;;;11.30;8.50;;;;;;;1.62;100.00;98548.18;105485;1269;69202;-77
2024/01/25 02:09:45;;;;;;;10.40;8.40;;;;;;;1.63;100.00;98543.05;105340;1270;71411;-79
2024/01/25 02:12:15;;;;;;;13.60;9.20;;;;;;;1.63;100.00;98538.70;105877;1265;60527;-80
2024/01/25 02:14:42;;;;;;;11.20;7.80;;;;;;;1.64;100.00;98542.42;105658;1265;60198;-80
2024/01/25 02:17:09;;;;;;;11.90;8.20;;;;;;;1.67;100.00;98540.55;105236;1265;73831;-80
2024/01/25 02:19:36;;;;;;;10.30;7.70;;;;;;;1.68;100.00;98540.66;105190;1265;70254;-81
2024/01/25 02:22:04;;;;;;;13.20;8.00;;;;;;;1.69;100.00;98538.06;105614;1264;72999;-85
2024/01/25 02:24:31;;;;;;;7.60;6.00;;;;;;;1.67;100.00;98531.45;105731;1265;61035;-82
2024/01/25 02:26:58;;;;;;;7.80;6.30;;;;;;;1.68;100.00;98528.81;107092;1265;60264;-85
2024/01/25 02:29:24;;;;;;;10.80;7.40;;;;;;;1.68;100.00;98527.40;108121;1265;72584;-84
2024/01/25 02:31:51;;;;;;;12.00;8.00;;;;;;;1.70;100.00;98528.75;108558;1264;68828;-87
2024/01/25 02:34:21;;;;;;;9.30;7.20;;;;;;;1.73;100.00;98519.03;107850;1272;71427;-86
2024/01/25 02:36:48;;;;;;;8.60;6.40;;;;;;;1.78;100.00;98524.20;106017;1264;60473;-84
2024/01/25 02:39:15;;;;;;;7.30;6.00;;;;;;;1.81;100.00;98517.50;106201;1265;60519;-86
2024/01/25 02:41:41;;;;;;;9.20;6.90;;;;;;;1.82;100.00;98512.34;106142;1264;74065;-82
2024/01/25 02:44:08;;;;;;;9.90;6.70;;;;;;;1.83;100.00;98517.33;105914;1264;70196;-83
2024/01/25 02:46:35;;;;;;;8.50;6.90;;;;;;;1.85;100.00;98511.89;107175;1265;71517;-84
2024/01/25 02:49:02;;;;;;;11.70;7.40;;;;;;;1.88;100.00;98513.17;107232;1264;60324;-84
2024/01/25 02:51:29;;;;;;;9.10;5.80;;;;;;;1.91;100.00;98513.03;106667;1264;60390;-86
2024/01/25 02:53:56;;;;;;;9.80;6.60;;;;;;;1.93;100.00;98514.40;108002;1264;73864;-84
2024/01/25 02:56:22;;;;;;;12.80;6.90;;;;;;;1.96;100.00;98507.69;108418;1265;68760;-84
2024/01/25 02:58:49;;;;;;;9.70;6.50;;;;;;;1.98;100.00;98507.34;108077;1265;71465;-84
2024/01/25 03:01:15;;;;;;;7.70;6.50;;;;;;;1.99;100.00;98506.86;106886;1265;60594;-84
2024/01/25 03:03:51;;;;;;;8.40;6.40;;;;;;;2.02;100.00;98506.09;108552;1265;59604;-81
2024/01/25 03:06:18;;;;;;;9.30;6.70;;;;;;;2.07;100.00;98504.91;108397;1264;72619;-82
2024/01/25 03:08:44;;;;;;;9.10;6.70;;;;;;;2.05;100.00;98505.07;105639;1265;68919;-83
2024/01/25 03:11:11;;;;;;;9.10;6.90;;;;;;;2.04;100.00;98500.46;105612;1265;72499;-82
2024/01/25 03:13:38;;;;;;;9.50;6.30;;;;;;;2.07;100.00;98500.05;105915;1265;62078;-84
2024/01/25 03:16:05;;;;;;;7.20;6.20;;;;;;;2.09;100.00;98497.08;105691;1271;60357;-83
2024/01/25 03:18:32;;;;;;;8.40;6.70;;;;;;;2.09;100.00;98494.42;105306;1266;74032;-83
2024/01/25 03:20:59;;;;;;;9.00;6.50;;;;;;;2.08;100.00;98495.72;106298;1265;70375;-83
2024/01/25 03:23:25;;;;;;;7.10;5.60;;;;;;;2.09;100.00;98489.66;105447;1270;72912;-83
2024/01/25 03:25:52;;;;;;;9.80;6.90;;;;;;;2.11;100.00;98486.34;105730;1265;60525;-82
2024/01/25 03:28:18;;;;;;;9.40;6.80;;;;;;;2.13;100.00;98489.31;105555;1265;60534;-82
2024/01/25 03:30:45;;;;;;;9.20;7.30;;;;;;;2.13;100.00;98485.95;105745;1265;73785;-83
2024/01/25 03:33:12;;;;;;;7.80;6.70;;;;;;;2.14;100.00;98486.23;107335;1265;70415;-83
2024/01/25 03:35:39;;;;;;;8.40;6.70;;;;;;;2.12;100.00;98485.53;105948;1267;71271;-84
2024/01/25 03:38:06;;;;;;;9.70;7.00;;;;;;;2.11;100.00;98485.09;106827;1264;60432;-84
2024/01/25 03:40:33;;;;;;;9.70;6.60;;;;;;;2.14;100.00;98481.73;105682;1269;60401;-83
2024/01/25 03:42:59;;;;;;;10.00;6.80;;;;;;;2.15;100.00;98483.92;105554;1269;73689;-83
2024/01/25 03:45:45;;;;;;;8.80;7.30;;;;;;;2.14;100.00;98483.08;106156;1265;70475;-85
2024/01/25 03:48:12;;;;;;;9.30;6.90;;;;;;;2.13;100.00;98483.05;105604;1264;71264;-86
2024/01/25 03:50:39;;;;;;;12.30;7.30;;;;;;;2.12;100.00;98479.73;105861;1265;61457;-84
2024/01/25 03:53:06;;;;;;;7.60;6.20;;;;;;;2.12;100.00;98480.15;106690;1267;60472;-83
2024/01/25 03:55:33;;;;;;;11.30;6.70;;;;;;;2.13;100.00;98475.33;108690;1264;72401;-86
2024/01/25 03:58:01;;;;;;;7.30;5.80;;;;;;;2.17;100.00;98481.10;107977;1265;68844;-84
2024/01/25 04:00:28;;;;;;;7.10;5.40;;;;;;;2.20;100.00;98474.88;107667;1264;72718;-85
2024/01/25 04:02:55;;;;;;;8.30;6.60;;;;;;;2.23;100.00;98479.30;108116;1264;61989;-86
2024/01/25 04:05:22;;;;;;;7.20;5.90;;;;;;;2.24;100.00;98476.08;106928;1265;60570;-86
2024/01/25 04:07:49;;;;;;;8.80;6.10;;;;;;;2.23;100.00;98475.26;106512;1269;73667;-87
2024/01/25 04:10:16;;;;;;;7.10;5.80;;;;;;;2.23;100.00;98472.65;106187;1265;69179;-84
2024/01/25 04:12:43;;;;;;;7.60;5.90;;;;;;;2.24;100.00;98476.41;106317;1265;71184;-83
2024/01/25 04:15:10;;;;;;;9.60;6.40;;;;;;;2.25;100.00;98473.50;106474;1265;60544;-82
2024/01/25 04:17:36;;;;;;;8.80;5.90;;;;;;;2.26;100.00;98473.73;105648;1265;60380;-84
2024/01/25 04:20:03;;;;;;;7.70;5.50;;;;;;;2.24;100.00;98472.19;105138;1270;73657;-81
2024/01/25 04:22:30;;;;;;;6.60;5.70;;;;;;;2.25;100.00;98470.39;105301;1265;70567;-83
2024/01/25 04:24:57;;;;;;;7.20;5.40;;;;;;;2.26;100.00;98465.05;105696;1264;71239;-83
2024/01/25 04:27:24;;;;;;;7.50;5.70;;;;;;;2.24;100.00;98469.09;105506;1265;61858;-82
2024/01/25 04:29:50;;;;;;;6.30;5.50;;;;;;;2.24;100.00;98463.30;106408;1265;60575;-82
2024/01/25 04:32:17;;;;;;;11.90;6.30;;;;;;;2.27;100.00;98461.64;105717;1265;72006;-82
2024/01/25 04:34:46;;;;;;;7.80;5.80;;;;;;;2.32;100.00;98466.38;106151;1264;68906;-83
2024/01/25 04:37:13;;;;;;;6.00;5.40;;;;;;;2.29;100.00;98463.75;105980;1265;71559;-82
2024/01/25 04:39:40;;;;;;;11.20;6.20;;;;;;;2.32;100.00;98464.17;105563;1271;60589;-83
2024/01/25 04:42:08;;;;;;;7.00;5.40;;;;;;;2.34;100.00;98470.16;105306;1265;60556;-83
2024/01/25 04:44:35;;;;;;;6.80;5.50;;;;;;;2.34;100.00;98469.36;105052;1264;73866;-84
2024/01/25 04:47:01;;;;;;;6.10;5.00;;;;;;;2.33;100.00;98469.13;105783;1265;69526;-85
2024/01/25 04:49:28;;;;;;;7.70;5.70;;;;;;;2.31;100.00;98459.02;106210;1265;71688;-86
2024/01/25 04:51:55;;;;;;;6.30;5.20;;;;;;;2.32;100.00;98455.73;107089;1269;60596;-82
2024/01/25 04:54:22;;;;;;;7.20;6.50;;;;;;;2.33;100.00;98457.59;108685;1267;59030;-85
2024/01/25 04:56:49;;;;;;;6.90;5.60;;;;;;;2.34;100.00;98456.95;108590;1265;72505;-85
2024/01/25 04:59:16;;;;;;;8.70;6.60;;;;;;;2.36;100.00;98455.88;106894;1264;69046;-85
2024/01/25 05:01:43;;;;;;;9.30;6.30;;;;;;;2.38;100.00;98453.61;106750;1265;72742;-82
2024/01/25 05:04:09;;;;;;;9.00;6.30;;;;;;;2.39;100.00;98445.25;106446;1265;61864;-80
2024/01/25 05:06:38;;;;;;;8.80;6.70;;;;;;;2.40;100.00;98450.58;106114;1270;60407;-81
2024/01/25 05:09:04;;;;;;;8.60;7.00;;;;;;;2.41;100.00;98445.50;104998;1271;72003;-79
2024/01/25 05:11:31;;;;;;;9.50;7.10;;;;;;;2.40;100.00;98449.23;105841;1269;68072;-83
2024/01/25 05:13:58;;;;;;;11.40;8.50;;;;;;;2.39;100.00;98448.95;105566;1265;71204;-83
2024/01/25 05:16:24;;;;;;;13.90;8.10;;;;;;;2.38;100.00;98447.70;105685;1265;60629;-83
2024/01/25 05:18:51;;;;;;;10.60;7.90;;;;;;;2.36;100.00;98451.48;104993;1265;60532;-82
2024/01/25 05:21:18;;;;;;;13.00;9.30;;;;;;;2.35;100.00;98446.03;105236;1265;72383;-87
2024/01/25 05:23:45;;;;;;;9.70;7.60;;;;;;;2.34;100.00;98456.20;105938;1265;70437;-85
2024/01/25 05:26:12;;;;;;;11.40;8.00;;;;;;;2.34;100.00;98452.93;106569;1266;72507;-85
2024/01/25 05:28:39;;;;;;;10.70;8.50;;;;;;;2.32;100.00;98451.56;106473;1265;60440;-84
2024/01/25 05:31:12;;;;;;;13.50;9.80;;;;;;;2.33;100.00;98455.08;105778;1269;60547;-82
2024/01/25 05:33:39;;;;;;;17.70;12.90;;;;;;;2.33;100.00;98453.86;106744;1265;73921;-82
2024/01/25 05:36:08;;;;;;;15.70;11.50;;;;;;;2.32;100.00;98456.28;108220;1265;70275;-83
2024/01/25 05:38:34;;;;;;;16.90;13.20;;;;;;;2.33;100.00;98454.29;108509;1265;71440;-83
2024/01/25 05:41:01;;;;;;;15.20;12.60;;;;;;;2.34;100.00;98460.23;108074;1264;61084;-83
2024/01/25 05:43:28;;;;;;;17.70;13.40;;;;;;;2.37;100.00;98456.14;107520;1266;60449;-86
2024/01/25 05:45:55;;;;;;;15.30;11.40;;;;;;;2.39;100.00;98452.43;107075;1265;73785;-84
2024/01/25 05:48:21;;;;;;;15.60;11.70;;;;;;;2.40;100.00;98455.16;105861;1268;70113;-80
2024/01/25 05:50:49;;;;;;;17.60;10.80;;;;;;;2.40;100.00;98456.52;106328;1265;72722;-86
2024/01/25 05:53:19;;;;;;;13.00;10.00;;;;;;;2.40;100.00;98454.67;107978;1264;60810;-84
2024/01/25 05:55:45;;;;;;;12.60;8.70;;;;;;;2.40;100.00;98455.83;107296;1269;60548;-85
2024/01/25 05:58:12;;;;;;;11.80;8.90;;;;;;;2.40;100.00;98448.86;106220;1267;72682;-85
2024/01/25 06:00:39;;;;;;;14.60;9.40;;;;;;;2.41;100.00;98451.06;106209;1265;70308;-84
2024/01/25 06:03:06;;;;;;;13.80;9.00;;;;;;;2.39;100.00;98451.05;108528;1265;70567;-86
2024/01/25 06:05:34;;;;;;;13.50;9.20;;;;;;;2.39;100.00;98448.10;107278;1265;61160;-88
2024/01/25 06:08:03;;;;;;;12.70;9.00;;;;;;;2.40;100.00;98448.46;107011;1267;60433;-86
2024/01/25 06:10:31;;;;;;;13.90;10.10;;;;;;;2.42;100.00;98444.44;106959;1265;72974;-88
2024/01/25 06:13:01;;;;;;;16.40;10.30;;;;;;;2.44;100.00;98444.15;107040;1265;72670;-88
2024/01/25 06:15:28;;;;;;;16.20;10.70;;;;;;;2.45;100.00;98442.19;105886;1265;72680;-88
2024/01/25 06:17:56;;;;;;;14.80;8.70;;;;;;;2.48;100.00;98448.63;106203;1265;60846;-91
2024/01/25 06:20:23;;;;;;;11.20;7.70;;;;;;;2.47;100.00;98444.13;105653;1270;60443;-87
2024/01/25 06:22:50;;;;;;;13.80;8.80;;;;;;;2.47;100.00;98436.15;106764;1265;72609;-87
2024/01/25 06:25:19;;;;;;;12.10;8.80;;;;;;;2.44;100.00;98441.08;107976;1265;69425;-86
2024/01/25 06:27:46;;;;;;;13.80;8.70;;;;;;;2.44;100.00;98432.78;107903;1262;71352;-86
2024/01/25 06:30:14;;;;;;;9.40;7.50;;;;;;;2.43;100.00;98432.31;106916;1262;60841;-85
2024/01/25 06:32:42;;;;;;;16.30;10.20;;;;;;;2.45;100.00;98435.23;108138;1263;60303;-84
2024/01/25 06:35:09;;;;;;;23.20;13.60;;;;;;;2.44;100.00;98430.95;106125;1266;73854;-83
2024/01/25 06:37:37;;;;;;;21.30;14.70;;;;;;;2.46;100.00;98427.29;106081;1267;69056;-84
2024/01/25 06:40:05;;;;;;;25.80;17.50;;;;;;;2.46;100.00;98426.94;105885;1264;71557;-83
2024/01/25 06:42:33;;;;;;;19.30;12.60;;;;;;;2.46;100.00;98428.15;106447;1267;60501;-83
2024/01/25 06:44:59;;;;;;;19.00;12.40;;;;;;;2.48;100.00;98423.29;106406;1262;60300;-82
2024/01/25 06:47:26;;;;;;;22.50;15.60;;;;;;;2.50;100.00;98428.36;106408;1262;73634;-82
2024/01/25 06:49:53;;;;;;;22.40;15.00;;;;;;;2.52;100.00;98421.43;107096;1262;71579;-82
2024/01/25 06:52:20;;;;;;;27.30;16.40;;;;;;;2.54;100.00;98427.52;107891;1262;71444;-86
2024/01/25 06:54:48;;;;;;;19.00;13.20;;;;;;;2.55;100.00;98423.92;107785;1263;61833;-82
2024/01/25 06:57:15;;;;;;;13.20;9.10;;;;;;;2.58;100.00;98427.06;106842;1262;60576;-84
2024/01/25 06:59:42;;;;;;;9.60;8.40;;;;;;;2.61;100.00;98425.02;107609;1262;72569;-84
2024/01/25 07:02:09;;;;;;;14.90;9.10;;;;;;;2.65;100.00;98424.11;106364;1267;68791;-82
2024/01/25 07:04:40;;;;;;;11.20;8.70;;;;;;;2.69;100.00;98425.76;105965;1266;71143;-84
2024/01/25 07:07:09;;;;;;;13.20;9.00;;;;;;;2.74;100.00;98421.08;105893;1267;60481;-83
2024/01/25 07:09:36;;;;;;;14.60;9.50;;;;;;;2.77;100.00;98421.13;105818;1265;60506;-85
2024/01/25 07:12:03;;;;;;;14.40;9.40;;;;;;;2.80;100.00;98420.70;107064;1264;73838;-85
2024/01/25 07:14:30;;;;;;;10.60;8.50;;;;;;;2.83;100.00;98420.06;108266;1262;69055;-85
2024/01/25 07:16:57;;;;;;;13.50;8.30;;;;;;;2.87;100.00;98422.38;108415;1262;71449;-85
2024/01/25 07:22:22;;;;;;;17.40;12.20;;;;;;;2.97;100.00;98423.23;105421;1289;600488;-85
2024/01/25 07:24:51;;;;;;;15.30;10.60;;;;;;;2.97;100.00;98422.38;108256;1267;62733;-85
2024/01/25 07:27:18;;;;;;;24.80;16.10;;;;;;;2.98;100.00;98430.42;106281;1267;62031;-87
2024/01/25 07:29:46;;;;;;;24.40;14.10;;;;;;;2.92;100.00;98429.27;108625;1267;71027;-87
2024/01/25 07:32:14;;;;;;;21.80;12.70;;;;;;;2.90;100.00;98424.59;107013;1257;71062;-88
2024/01/25 07:34:42;;;;;;;14.30;10.70;;;;;;;2.91;100.00;98418.77;107366;1257;75162;-86
2024/01/25 07:37:11;;;;;;;19.60;12.70;;;;;;;2.89;100.00;98423.11;108336;1263;62359;-86
2024/01/25 07:39:40;;;;;;;16.80;10.90;;;;;;;2.90;100.00;98419.30;108995;1256;59037;-86
2024/01/25 07:42:08;;;;;;;16.50;11.10;;;;;;;2.89;100.00;98419.27;107436;1267;73131;-85
2024/01/25 07:44:36;;;;;;;16.80;11.50;;;;;;;2.89;100.00;98423.77;107088;1264;71180;-85
2024/01/25 07:47:04;;;;;;;15.90;9.60;;;;;;;2.90;100.00;98415.48;106899;1257;72727;-85
2024/01/25 07:49:32;;;;;;;17.20;10.10;;;;;;;2.92;100.00;98417.36;108322;1254;60557;-85
2024/01/25 07:52:01;;;;;;;16.20;10.20;;;;;;;2.92;100.00;98416.48;108991;1254;60994;-85
2024/01/25 07:54:28;;;;;;;11.70;8.40;;;;;;;2.92;100.00;98421.75;108202;1254;73602;-85
2024/01/25 07:56:56;;;;;;;16.30;10.40;;;;;;;2.93;100.00;98412.41;107682;1260;68932;-84
2024/01/25 07:59:24;;;;;;;12.90;8.70;;;;;;;2.96;100.00;98421.07;108982;1253;73546;-84
2024/01/25 08:01:52;;;;;;;12.50;8.70;;;;;;;2.97;100.00;98416.55;108837;1254;62616;-84
2024/01/25 08:04:20;;;;;;;17.90;10.20;;;;;;;2.98;100.00;98418.71;107475;1260;59641;-85
2024/01/25 08:06:48;;;;;;;14.70;10.00;;;;;;;3.01;100.00;98423.00;106821;1257;73116;-86
2024/01/25 08:09:17;;;;;;;13.50;9.20;;;;;;;3.03;100.00;98421.73;107180;1254;68717;-87
2024/01/25 08:11:45;;;;;;;21.40;11.30;;;;;;;3.05;100.00;98419.46;107399;1254;72975;-86
2024/01/25 08:14:13;;;;;;;15.90;9.40;;;;;;;3.05;100.00;98419.42;106989;1254;61739;-86
2024/01/25 08:16:42;;;;;;;17.00;10.40;;;;;;;3.06;100.00;98415.14;106932;1252;61447;-86
2024/01/25 08:19:10;;;;;;;17.10;9.30;;;;;;;3.09;100.00;98419.75;107017;1259;73898;-88
2024/01/25 08:21:39;;;;;;;20.60;11.30;;;;;;;3.11;100.00;98421.78;107009;1260;71310;-89
2024/01/25 08:24:10;;;;;;;14.90;9.60;;;;;;;3.13;100.00;98426.38;108291;1254;72795;-88
2024/01/25 08:26:39;;;;;;;12.10;8.50;;;;;;;3.13;100.00;98424.45;107230;1254;61195;-88
2024/01/25 08:29:07;;;;;;;15.50;9.40;;;;;;;3.15;100.00;98425.63;109301;1253;61098;-89
2024/01/25 08:31:36;;;;;;;14.10;8.10;;;;;;;3.18;100.00;98428.26;108105;1254;73612;-87
2024/01/25 08:34:04;;;;;;;12.50;7.80;;;;;;;3.22;100.00;98428.84;108050;1254;68499;-88
2024/01/25 08:36:34;;;;;;;13.00;8.60;;;;;;;3.22;100.00;98427.17;108190;1247;73544;-89
2024/01/25 08:39:05;;;;;;;17.60;8.70;;;;;;;3.23;100.00;98428.48;108597;1257;62540;-88
2024/01/25 08:41:35;;;;;;;11.80;8.30;;;;;;;3.27;100.00;98428.80;108871;1256;61038;-88
2024/01/25 08:44:32;;;;;;;15.80;8.90;;;;;;;3.29;100.00;98430.72;108823;1257;72882;-90
2024/01/25 08:47:55;;;;;;;16.20;9.40;;;;;;;3.29;100.00;98426.27;108642;1256;71508;-90
2024/01/25 08:50:43;;;;;;;13.60;8.70;;;;;;;3.38;100.00;98430.00;108316;1270;73779;-87
2024/01/25 08:53:11;;;;;;;10.60;8.00;;;;;;;3.39;100.00;98423.93;108262;1268;61044;-85
2024/01/25 08:55:39;;;;;;;15.50;9.30;;;;;;;3.43;100.00;98426.15;108110;1267;58807;-87
2024/01/25 08:58:08;;;;;;;13.80;7.50;;;;;;;3.46;100.00;98424.23;108002;1267;70737;-84
2024/01/25 09:00:36;;;;;;;9.70;6.70;;;;;;;3.50;100.00;98426.52;108106;1266;71646;-87
2024/01/25 09:03:07;;;;;;;12.00;7.10;;;;;;;3.55;100.00;98422.67;108073;1265;73817;-86
2024/01/25 09:05:46;;;;;;;13.00;6.90;;;;;;;3.62;100.00;98423.90;107053;1265;59708;-88
2024/01/25 09:08:15;;;;;;;12.00;6.60;;;;;;;3.66;100.00;98424.67;108359;1267;58005;-87
2024/01/25 09:10:44;;;;;;;11.40;6.30;;;;;;;3.77;100.00;98421.86;108298;1265;75222;-86
2024/01/25 09:13:12;;;;;;;8.30;5.60;;;;;;;3.83;100.00;98418.22;107764;1267;70352;-85
2024/01/25 09:15:43;;;;;;;10.00;5.90;;;;;;;3.86;100.00;98415.14;106098;1267;73272;-87
2024/01/25 09:18:12;;;;;;;10.90;6.10;;;;;;;3.86;100.00;98414.13;106998;1267;60946;-86
2024/01/25 09:20:40;;;;;;;7.70;5.20;;;;;;;3.89;100.00;98415.13;107187;1267;59586;-87
2024/01/25 09:23:09;;;;;;;9.90;5.90;;;;;;;3.92;100.00;98413.60;106209;1267;72371;-82
2024/01/25 09:25:37;;;;;;;10.90;6.70;;;;;;;3.91;100.00;98412.38;105381;1265;70704;-84
2024/01/25 09:28:05;;;;;;;11.20;6.00;;;;;;;3.93;100.00;98415.30;107396;1265;73532;-83
2024/01/25 09:30:33;;;;;;;9.10;6.30;;;;;;;3.91;100.00;98410.20;107436;1267;60179;-85
2024/01/25 09:33:03;;;;;;;10.10;5.70;;;;;;;3.91;100.00;98409.16;106157;1266;61316;-83
2024/01/25 09:35:30;;;;;;;9.40;6.30;;;;;;;3.91;100.00;98407.55;107447;1265;71625;-84
2024/01/25 09:37:59;;;;;;;8.90;6.20;;;;;;;3.89;100.00;98408.20;108110;1265;69113;-86
2024/01/25 09:40:27;;;;;;;12.40;6.50;;;;;;;3.88;100.00;98408.27;107073;1269;71408;-85
2024/01/25 09:42:55;;;;;;;9.30;5.90;;;;;;;3.94;100.00;98407.33;107571;1267;63897;-86
2024/01/25 09:45:24;;;;;;;11.80;6.30;;;;;;;3.99;100.00;98407.73;107580;1265;59132;-86
2024/01/25 09:47:52;;;;;;;7.40;5.50;;;;;;;3.97;100.00;98403.70;108607;1267;71036;-85
2024/01/25 09:50:22;;;;;;;6.70;5.20;;;;;;;4.02;100.00;98404.04;108553;1267;69087;-88
2024/01/25 09:52:55;;;;;;;13.30;6.10;;;;;;;4.08;100.00;98400.98;108110;1265;73462;-86
2024/01/25 09:55:27;;;;;;;13.60;7.40;;;;;;;4.10;100.00;98401.61;107811;1266;59328;-87
2024/01/25 09:57:59;;;;;;;10.60;5.60;;;;;;;4.12;100.00;98404.90;108461;1265;61313;-88
2024/01/25 10:00:27;;;;;;;9.40;5.80;;;;;;;4.18;100.00;98400.63;107293;1265;74094;-86
2024/01/25 10:02:58;;;;;;;8.90;5.90;;;;;;;4.21;100.00;98398.35;108385;1265;68123;-85
2024/01/25 10:05:28;;;;;;;8.70;5.30;;;;;;;4.22;100.00;98398.33;108379;1265;71462;-84
2024/01/25 10:08:00;;;;;;;9.20;5.90;;;;;;;4.25;100.00;98395.71;107274;1267;60869;-86
2024/01/25 10:10:33;;;;;;;7.40;4.70;;;;;;;4.32;100.00;98393.52;106658;1272;61155;-88
2024/01/25 10:13:02;;;;;;;11.00;5.70;;;;;;;4.37;100.00;98391.80;106689;1266;71792;-86
2024/01/25 10:15:30;;;;;;;7.80;5.40;;;;;;;4.39;100.00;98390.05;106157;1265;71190;-87
2024/01/25 10:17:59;;;;;;;9.40;5.30;;;;;;;4.30;100.00;98387.58;106312;1265;74922;-86
2024/01/25 10:20:48;;;;;;;8.80;5.60;;;;;;;4.27;100.00;98385.52;106645;1264;61495;-90
2024/01/25 10:23:18;;;;;;;10.50;5.60;;;;;;;4.27;100.00;98385.69;107027;1265;59674;-90
2024/01/25 10:25:48;;;;;;;13.90;5.40;;;;;;;4.27;100.00;98386.38;107204;1265;74206;-86
2024/01/25 10:28:17;;;;;;;18.40;9.00;;;;;;;4.29;100.00;98383.71;108382;1264;71203;-86
2024/01/25 10:30:46;;;;;;;11.40;6.40;;;;;;;4.32;100.00;98384.23;107092;1268;71660;-85
2024/01/25 10:33:15;;;;;;;8.70;5.10;;;;;;;4.40;100.00;98388.89;107168;1268;61050;-85
2024/01/25 10:35:49;;;;;;;7.20;4.20;;;;;;;4.43;100.00;98389.95;107160;1265;59675;-85
2024/01/25 10:38:20;;;;;;;9.40;5.80;;;;;;;4.38;99.98;98385.58;107294;1264;75459;-88
2024/01/25 10:41:04;;;;;;;7.90;4.40;;;;;;;4.40;99.39;98381.10;108101;1265;68983;-88
2024/01/25 10:43:32;;;;;;;8.30;5.20;;;;;;;4.44;99.62;98384.80;107870;1267;71436;-88
2024/01/25 10:46:02;;;;;;;9.10;5.30;;;;;;;4.48;99.82;98384.14;108305;1265;62790;-90
2024/01/25 10:51:59;;;;;;;10.60;5.10;;;;;;;4.56;100.00;98375.40;108492;1255;73974;-87
2024/01/25 10:54:29;;;;;;;9.60;5.50;;;;;;;4.65;100.00;98377.64;108411;1263;69205;-89
2024/01/25 10:56:58;;;;;;;11.90;5.90;;;;;;;4.70;100.00;98378.45;108601;1267;74823;-90
2024/01/25 10:59:29;;;;;;;10.20;5.80;;;;;;;4.73;99.83;98380.11;107415;1265;63931;-88
2024/01/25 11:02:03;;;;;;;10.90;5.50;;;;;;;4.76;99.80;98381.17;107946;1265;60565;-87
2024/01/25 11:04:57;;;;;;;6.30;4.20;;;;;;;4.79;100.00;98379.34;107807;1265;74606;-93
2024/01/25 11:10:54;;;;;;;9.10;5.50;;;;;;;4.79;98.66;98379.97;106551;1261;71411;-94
2024/01/25 11:20:41;;;;;;;7.40;4.10;;;;;;;4.74;96.44;98376.70;91550;1267;72619;-93
2024/01/25 11:24:26;;;;;;;6.30;3.80;;;;;;;4.72;97.38;98373.16;108797;1267;70868;-92
2024/01/25 11:28:07;;;;;;;5.10;3.40;;;;;;;4.72;98.23;98371.80;108108;1264;73552;31
2024/01/25 11:31:06;;;;;;;6.00;3.90;;;;;;;4.71;97.43;98369.80;108213;1271;59234;-90
2024/01/25 11:33:47;;;;;;;8.60;5.00;;;;;;;4.73;98.17;98368.85;108141;1270;61449;-90
2024/01/25 11:36:30;;;;;;;6.50;4.60;;;;;;;4.79;97.90;98371.05;108159;1271;73108;-89
2024/01/25 11:39:01;;;;;;;5.90;4.30;;;;;;;4.81;97.31;98372.42;107415;1271;71244;-90
2024/01/25 11:41:55;;;;;;;7.50;5.00;;;;;;;4.75;96.57;98367.75;107506;1271;75315;-92
2024/01/25 11:44:39;;;;;;;8.30;4.80;;;;;;;4.69;97.29;98368.21;107793;1271;60897;-91
2024/01/25 11:50:46;;;;;;;9.20;5.90;;;;;;;4.71;96.52;98372.61;108569;1267;73320;-90